Time;durP1;ratioP1;P1;durP2;ratioP2;P2;SDS_P1;SDS_P2;PMS_P1;PMS_P2;Temp;Humidity;BMP_temperature;BMP_pressure;BME280_temperature;BME280_humidity;BME280_pressure;Samples;Min_cycle;Max_cycle;Signal;HPM_P1;HPM_P2
2023/06/30 00:00:21;;;;;;;56.90;2.60;;;;;;;;;;5031168;28;20937;-68
2023/06/30 00:02:48;;;;;;;56.77;2.50;;;;;;;;;;5031558;28;20441;-68
2023/06/30 00:05:16;;;;;;;57.67;2.70;;;;;;;;;;5030860;28;20448;-68
2023/06/30 00:07:43;;;;;;;56.87;2.37;;;;;;;;;;5030841;28;20473;-68
2023/06/30 00:10:10;;;;;;;56.87;2.10;;;;;;;;;;5030992;28;21011;-68
2023/06/30 00:12:37;;;;;;;56.77;2.37;;;;;;;;;;5031330;28;20806;-68
2023/06/30 00:15:05;;;;;;;57.37;2.80;;;;;;;;;;5030908;28;20536;-69
2023/06/30 00:17:33;;;;;;;56.50;2.27;;;;;;;;;;5031024;28;20465;-68
2023/06/30 00:20:05;;;;;;;56.73;2.40;;;;;;;;;;5030992;28;20459;-68
2023/06/30 00:22:35;;;;;;;56.77;2.37;;;;;;;;;;5031049;28;20434;-68
2023/06/30 00:25:02;;;;;;;56.70;2.30;;;;;;;;;;5030952;28;20453;-68
2023/06/30 00:27:30;;;;;;;56.80;2.00;;;;;;;;;;5030939;28;20523;-68
2023/06/30 00:29:57;;;;;;;56.97;2.40;;;;;;;;;;5031239;28;20449;-68
2023/06/30 00:32:24;;;;;;;56.10;2.10;;;;;;;;;;5030933;28;20961;-68
2023/06/30 00:34:53;;;;;;;56.90;2.57;;;;;;;;;;5030780;28;20964;-68
2023/06/30 00:37:20;;;;;;;56.50;2.63;;;;;;;;;;5030792;28;20853;-69
2023/06/30 00:39:47;;;;;;;57.00;2.50;;;;;;;;;;5031067;28;20456;-68
2023/06/30 00:42:14;;;;;;;56.70;2.10;;;;;;;;;;5031018;28;20544;-68
2023/06/30 00:44:41;;;;;;;56.30;2.03;;;;;;;;;;5030780;28;20452;-69
2023/06/30 00:47:08;;;;;;;56.80;2.23;;;;;;;;;;5030420;28;20857;-68
2023/06/30 00:49:36;;;;;;;56.97;2.53;;;;;;;;;;5030713;28;20537;-68
2023/06/30 00:52:05;;;;;;;57.30;3.27;;;;;;;;;;5030766;28;20449;-68
2023/06/30 00:54:32;;;;;;;56.17;2.27;;;;;;;;;;5030825;28;20832;-68
2023/06/30 00:57:00;;;;;;;57.30;2.70;;;;;;;;;;5030349;28;20487;-68
2023/06/30 00:59:27;;;;;;;56.80;2.67;;;;;;;;;;5030617;28;20472;-68
2023/06/30 01:01:58;;;;;;;56.77;2.03;;;;;;;;;;5031050;28;20449;-68
2023/06/30 01:04:28;;;;;;;57.20;3.13;;;;;;;;;;5030858;28;20449;-68
2023/06/30 01:07:00;;;;;;;56.77;2.53;;;;;;;;;;5030887;28;20500;-70
2023/06/30 01:09:30;;;;;;;56.47;2.07;;;;;;;;;;5034209;28;20461;-68
2023/06/30 01:11:57;;;;;;;57.43;3.23;;;;;;;;;;5034286;28;20952;-68
2023/06/30 01:14:25;;;;;;;56.90;2.43;;;;;;;;;;5034226;28;20452;-68
2023/06/30 01:16:53;;;;;;;57.40;2.67;;;;;;;;;;5034156;28;20468;-69
2023/06/30 01:19:25;;;;;;;57.10;2.70;;;;;;;;;;5034443;28;20449;-68
2023/06/30 01:21:53;;;;;;;57.53;2.80;;;;;;;;;;5034239;28;20449;-70
2023/06/30 01:24:21;;;;;;;57.57;2.70;;;;;;;;;;5034114;28;20445;-68
2023/06/30 01:26:50;;;;;;;57.10;2.30;;;;;;;;;;5033391;28;20491;-68
2023/06/30 01:29:17;;;;;;;57.20;3.07;;;;;;;;;;5034299;28;20809;-68
2023/06/30 01:31:46;;;;;;;56.77;2.40;;;;;;;;;;5034099;28;20449;-68
2023/06/30 01:34:13;;;;;;;56.97;2.50;;;;;;;;;;5033748;28;20457;-68
2023/06/30 01:36:40;;;;;;;57.00;2.63;;;;;;;;;;5033369;28;20465;-68
2023/06/30 01:39:07;;;;;;;57.47;2.50;;;;;;;;;;5033681;28;20464;-68
2023/06/30 01:41:34;;;;;;;57.40;2.60;;;;;;;;;;5032582;28;20969;-68
2023/06/30 01:44:02;;;;;;;57.50;2.87;;;;;;;;;;5033187;28;20449;-68
2023/06/30 01:46:30;;;;;;;57.10;2.47;;;;;;;;;;5033130;28;20485;-68
2023/06/30 01:48:57;;;;;;;56.80;2.37;;;;;;;;;;5033456;28;20456;-68
2023/06/30 01:51:24;;;;;;;57.00;2.37;;;;;;;;;;5032058;28;20737;-68
2023/06/30 01:53:51;;;;;;;56.97;2.47;;;;;;;;;;5033244;28;20456;-68
2023/06/30 01:56:18;;;;;;;57.10;2.30;;;;;;;;;;5032997;28;20475;-68
2023/06/30 01:58:45;;;;;;;57.40;2.80;;;;;;;;;;5030999;28;20441;-68
2023/06/30 02:01:14;;;;;;;57.10;2.50;;;;;;;;;;5033328;28;20453;-68
2023/06/30 02:03:41;;;;;;;57.20;2.70;;;;;;;;;;5033221;28;20449;-68
2023/06/30 02:06:08;;;;;;;57.17;2.67;;;;;;;;;;5032696;28;20496;-68
2023/06/30 02:08:35;;;;;;;57.30;2.70;;;;;;;;;;5033123;28;20465;-68
2023/06/30 02:11:02;;;;;;;57.10;3.07;;;;;;;;;;5033330;28;20543;-68
2023/06/30 02:13:29;;;;;;;57.13;3.00;;;;;;;;;;5033075;28;20460;-68
2023/06/30 02:15:56;;;;;;;57.37;2.83;;;;;;;;;;5032643;28;20852;-68
2023/06/30 02:18:25;;;;;;;57.50;3.03;;;;;;;;;;5032899;28;20480;-68
2023/06/30 02:20:52;;;;;;;59.20;3.57;;;;;;;;;;5033238;28;20449;-68
2023/06/30 02:23:19;;;;;;;57.17;2.70;;;;;;;;;;5033032;28;20449;-68
2023/06/30 02:25:46;;;;;;;56.77;2.40;;;;;;;;;;5032360;28;20960;-68
2023/06/30 02:28:13;;;;;;;57.47;2.70;;;;;;;;;;5032903;28;20453;-68
2023/06/30 02:30:40;;;;;;;57.10;2.57;;;;;;;;;;5032826;28;20448;-68
2023/06/30 02:33:08;;;;;;;57.40;2.83;;;;;;;;;;5032583;28;20452;-67
2023/06/30 02:35:36;;;;;;;57.67;2.83;;;;;;;;;;5032489;28;20441;-68
2023/06/30 02:38:05;;;;;;;57.47;2.87;;;;;;;;;;5032811;28;20825;-68
2023/06/30 02:40:32;;;;;;;56.80;2.43;;;;;;;;;;5032807;28;20778;-68
2023/06/30 02:42:59;;;;;;;56.93;2.30;;;;;;;;;;5032613;28;20445;-68
2023/06/30 02:45:26;;;;;;;57.77;2.60;;;;;;;;;;5032129;28;20449;-68
2023/06/30 02:47:53;;;;;;;60.20;2.63;;;;;;;;;;5032387;28;21043;-68
2023/06/30 02:50:23;;;;;;;58.17;2.80;;;;;;;;;;5032553;28;20455;-68
2023/06/30 02:52:52;;;;;;;57.20;2.40;;;;;;;;;;5032390;28;20445;-68
2023/06/30 02:55:19;;;;;;;57.50;2.63;;;;;;;;;;5032367;28;20457;-68
2023/06/30 02:57:46;;;;;;;58.30;4.20;;;;;;;;;;5032213;28;20520;-68
2023/06/30 03:00:14;;;;;;;57.70;2.97;;;;;;;;;;5032292;28;20453;-68
2023/06/30 03:02:41;;;;;;;57.00;2.50;;;;;;;;;;5032645;28;20449;-68
2023/06/30 03:05:08;;;;;;;56.97;2.37;;;;;;;;;;5031973;28;21015;-68
2023/06/30 03:07:35;;;;;;;56.57;2.50;;;;;;;;;;5031990;28;20581;-68
2023/06/30 03:10:04;;;;;;;57.40;2.93;;;;;;;;;;5031998;28;20556;-68
2023/06/30 03:12:31;;;;;;;56.57;2.30;;;;;;;;;;5032384;28;20449;-68
2023/06/30 03:14:58;;;;;;;56.87;2.40;;;;;;;;;;5031935;28;20967;-68
2023/06/30 03:17:25;;;;;;;57.03;2.30;;;;;;;;;;5032000;28;20473;-68
2023/06/30 03:19:53;;;;;;;56.43;2.17;;;;;;;;;;5031838;28;21040;-68
2023/06/30 03:22:20;;;;;;;57.20;2.70;;;;;;;;;;5031900;28;20449;-68
2023/06/30 03:24:47;;;;;;;57.40;2.63;;;;;;;;;;5031579;28;20445;-68
2023/06/30 03:27:15;;;;;;;58.27;3.40;;;;;;;;;;5031195;28;20496;-68
2023/06/30 03:29:42;;;;;;;56.93;2.60;;;;;;;;;;5031158;28;20467;-68
2023/06/30 03:32:09;;;;;;;57.13;2.60;;;;;;;;;;5031811;28;20452;-68
2023/06/30 03:34:36;;;;;;;58.23;3.03;;;;;;;;;;5031752;28;20455;-68
2023/06/30 03:37:04;;;;;;;57.30;2.33;;;;;;;;;;5031167;28;20469;-68
2023/06/30 03:39:31;;;;;;;56.67;2.10;;;;;;;;;;5031541;28;20453;-68
2023/06/30 03:41:58;;;;;;;57.20;2.50;;;;;;;;;;5030777;28;20469;-68
2023/06/30 03:44:27;;;;;;;57.00;2.77;;;;;;;;;;5031317;28;20945;-68
2023/06/30 03:46:54;;;;;;;57.40;2.17;;;;;;;;;;5030655;28;20493;-68
2023/06/30 03:49:21;;;;;;;62.03;3.37;;;;;;;;;;5031357;28;20445;-68
2023/06/30 03:51:49;;;;;;;56.80;2.40;;;;;;;;;;5031341;28;20944;-68
2023/06/30 03:54:16;;;;;;;56.70;2.70;;;;;;;;;;5031373;28;20503;-68
2023/06/30 03:56:43;;;;;;;56.97;2.70;;;;;;;;;;5031094;28;20828;-68
2023/06/30 03:59:10;;;;;;;57.20;2.57;;;;;;;;;;5031340;28;20457;-68
2023/06/30 04:01:39;;;;;;;57.13;2.30;;;;;;;;;;5031129;28;20953;-68
2023/06/30 04:04:07;;;;;;;57.10;2.80;;;;;;;;;;5031193;28;20479;-69
2023/06/30 04:06:34;;;;;;;57.97;2.80;;;;;;;;;;5030714;28;20485;-68
2023/06/30 04:09:01;;;;;;;57.40;2.50;;;;;;;;;;5031077;28;20953;-68
2023/06/30 04:11:28;;;;;;;57.13;2.67;;;;;;;;;;5031399;28;20457;-68
2023/06/30 04:13:56;;;;;;;56.97;2.63;;;;;;;;;;5030981;28;20467;-68
2023/06/30 04:16:23;;;;;;;57.00;2.97;;;;;;;;;;5030811;28;20495;-68
2023/06/30 04:18:52;;;;;;;57.20;2.50;;;;;;;;;;5031207;28;20448;-68
2023/06/30 04:21:19;;;;;;;57.40;2.93;;;;;;;;;;5031038;28;20828;-68
2023/06/30 04:23:47;;;;;;;57.00;2.20;;;;;;;;;;5031236;28;20451;-68
2023/06/30 04:26:16;;;;;;;57.00;2.37;;;;;;;;;;5030730;28;20469;-68
2023/06/30 04:28:44;;;;;;;56.70;2.20;;;;;;;;;;5030928;28;20488;-68
2023/06/30 04:31:11;;;;;;;57.07;2.50;;;;;;;;;;5030905;28;20453;-68
2023/06/30 04:33:38;;;;;;;56.90;2.57;;;;;;;;;;5030846;28;20459;-68
2023/06/30 04:36:07;;;;;;;57.10;2.53;;;;;;;;;;5030466;28;20480;-68
2023/06/30 04:38:34;;;;;;;56.90;3.63;;;;;;;;;;5031172;28;20937;-68
2023/06/30 04:41:01;;;;;;;57.07;3.03;;;;;;;;;;5031662;28;21011;-68
2023/06/30 04:43:28;;;;;;;57.67;3.07;;;;;;;;;;5034786;28;20449;-68
2023/06/30 04:45:57;;;;;;;57.10;2.73;;;;;;;;;;5034308;28;20473;-68
2023/06/30 04:48:24;;;;;;;59.57;3.00;;;;;;;;;;5034483;28;20531;-68
2023/06/30 04:50:51;;;;;;;56.90;2.50;;;;;;;;;;5030251;28;20474;-67
2023/06/30 04:53:20;;;;;;;56.80;2.50;;;;;;;;;;5034432;28;20806;-68
2023/06/30 04:55:47;;;;;;;57.37;2.60;;;;;;;;;;5034126;28;20453;-68
2023/06/30 04:58:14;;;;;;;57.10;2.57;;;;;;;;;;5034458;28;20448;-68
2023/06/30 05:00:42;;;;;;;56.70;2.40;;;;;;;;;;5034466;28;20824;-68
2023/06/30 05:03:09;;;;;;;57.27;2.53;;;;;;;;;;5034414;28;20456;-68
2023/06/30 05:05:36;;;;;;;57.40;2.50;;;;;;;;;;5034154;28;20743;-68
2023/06/30 05:08:04;;;;;;;56.90;2.63;;;;;;;;;;5034272;28;20488;-68
2023/06/30 05:10:32;;;;;;;57.00;2.30;;;;;;;;;;5034426;28;20765;-69
2023/06/30 05:12:59;;;;;;;57.23;3.10;;;;;;;;;;5034345;28;20445;-69
2023/06/30 05:15:26;;;;;;;56.77;2.53;;;;;;;;;;5033804;28;20460;-69
2023/06/30 05:17:53;;;;;;;56.90;2.40;;;;;;;;;;5034017;28;21016;-68
2023/06/30 05:20:20;;;;;;;56.60;2.87;;;;;;;;;;5034449;28;20467;-69
2023/06/30 05:22:47;;;;;;;56.97;2.40;;;;;;;;;;5034373;28;20452;-69
2023/06/30 05:25:14;;;;;;;59.33;2.80;;;;;;;;;;5033874;28;20460;-68
2023/06/30 05:27:43;;;;;;;56.83;2.10;;;;;;;;;;5033749;28;20860;-69
2023/06/30 05:30:10;;;;;;;57.70;2.77;;;;;;;;;;5034191;28;20441;-69
2023/06/30 05:32:38;;;;;;;57.00;2.67;;;;;;;;;;5033866;28;20953;-69
2023/06/30 05:35:05;;;;;;;57.20;2.57;;;;;;;;;;5033697;28;20507;-69
2023/06/30 05:37:32;;;;;;;57.33;2.80;;;;;;;;;;5033779;28;20465;-69
2023/06/30 05:39:59;;;;;;;56.70;2.53;;;;;;;;;;5033835;28;20445;-69
2023/06/30 05:42:26;;;;;;;56.93;2.40;;;;;;;;;;5033247;28;20457;-69
2023/06/30 05:44:54;;;;;;;57.87;2.87;;;;;;;;;;5033300;28;20948;-69
2023/06/30 05:47:22;;;;;;;57.20;2.50;;;;;;;;;;5033146;28;20499;-68
2023/06/30 05:49:49;;;;;;;57.47;2.50;;;;;;;;;;5033465;28;21017;-69
2023/06/30 05:52:16;;;;;;;56.97;2.67;;;;;;;;;;5033266;28;20445;-69
2023/06/30 05:54:43;;;;;;;57.10;2.73;;;;;;;;;;5033099;28;20449;-68
2023/06/30 05:57:10;;;;;;;57.50;2.40;;;;;;;;;;5032773;28;20472;-69
2023/06/30 05:59:37;;;;;;;57.27;2.90;;;;;;;;;;5033663;28;20453;-69
2023/06/30 06:02:06;;;;;;;56.37;2.30;;;;;;;;;;5033538;28;20457;-68
2023/06/30 06:04:33;;;;;;;57.60;3.03;;;;;;;;;;5033447;28;20453;-68
2023/06/30 06:07:02;;;;;;;56.60;2.80;;;;;;;;;;5032899;28;20465;-68
2023/06/30 06:09:29;;;;;;;56.57;2.30;;;;;;;;;;5033089;28;20544;-68
2023/06/30 06:11:56;;;;;;;57.00;2.57;;;;;;;;;;5032899;28;20817;-68
2023/06/30 06:14:24;;;;;;;57.30;3.60;;;;;;;;;;5033249;28;20445;-68
2023/06/30 06:16:51;;;;;;;56.97;2.53;;;;;;;;;;5032640;28;20472;-68
2023/06/30 06:19:20;;;;;;;56.23;2.37;;;;;;;;;;5033176;28;20806;-68
2023/06/30 06:21:47;;;;;;;56.77;2.37;;;;;;;;;;5033014;28;20994;-68
2023/06/30 06:24:16;;;;;;;57.87;3.70;;;;;;;;;;5032843;28;20453;-68
2023/06/30 06:26:44;;;;;;;57.80;2.77;;;;;;;;;;5032534;28;20477;-68
2023/06/30 06:29:14;;;;;;;56.47;2.40;;;;;;;;;;5032921;28;20485;-69
2023/06/30 06:31:43;;;;;;;56.87;2.40;;;;;;;;;;5032854;28;20453;-68
2023/06/30 06:34:11;;;;;;;57.80;3.27;;;;;;;;;;5032867;28;20871;-68
2023/06/30 06:36:39;;;;;;;57.70;3.87;;;;;;;;;;5032764;28;20469;-68
2023/06/30 06:39:06;;;;;;;57.40;2.80;;;;;;;;;;5032839;28;20449;-68
2023/06/30 06:41:33;;;;;;;56.27;2.60;;;;;;;;;;5032503;28;20453;-68
2023/06/30 06:44:01;;;;;;;57.30;2.73;;;;;;;;;;5032713;28;20546;-68
2023/06/30 06:46:28;;;;;;;57.30;2.60;;;;;;;;;;5032164;28;20473;-68
2023/06/30 06:48:55;;;;;;;57.17;2.77;;;;;;;;;;5032446;28;20992;-68
2023/06/30 06:51:22;;;;;;;57.00;2.50;;;;;;;;;;5031651;28;20449;-68
2023/06/30 06:53:53;;;;;;;57.10;2.60;;;;;;;;;;5030956;28;20453;-68
2023/06/30 06:56:20;;;;;;;57.03;2.80;;;;;;;;;;5032060;28;20476;-68
2023/06/30 06:58:47;;;;;;;57.07;2.90;;;;;;;;;;5032291;28;20450;-68
2023/06/30 07:01:14;;;;;;;57.17;3.00;;;;;;;;;;5032378;28;20827;-68
2023/06/30 07:03:41;;;;;;;56.47;2.60;;;;;;;;;;5032235;28;20768;-67
2023/06/30 07:06:08;;;;;;;57.87;3.43;;;;;;;;;;5031748;28;20480;-68
2023/06/30 07:08:35;;;;;;;57.07;2.67;;;;;;;;;;5032112;28;20496;-68
2023/06/30 07:11:04;;;;;;;57.00;2.77;;;;;;;;;;5032232;28;20445;-68
2023/06/30 07:13:31;;;;;;;57.00;2.67;;;;;;;;;;5032103;28;20457;-68
2023/06/30 07:15:58;;;;;;;56.80;2.40;;;;;;;;;;5032008;28;21048;-68
2023/06/30 07:18:25;;;;;;;56.87;2.60;;;;;;;;;;5031789;28;20957;-68
2023/06/30 07:20:53;;;;;;;57.93;2.83;;;;;;;;;;5032108;28;20444;-68
2023/06/30 07:23:20;;;;;;;57.60;3.07;;;;;;;;;;5031772;28;20453;-68
2023/06/30 07:25:48;;;;;;;57.20;2.70;;;;;;;;;;5031493;28;20449;-69
2023/06/30 07:28:16;;;;;;;59.20;2.57;;;;;;;;;;5031795;28;20481;-68
2023/06/30 07:30:44;;;;;;;57.27;2.73;;;;;;;;;;5031759;28;20449;-68
2023/06/30 07:33:12;;;;;;;56.83;2.60;;;;;;;;;;5031907;28;20449;-68
2023/06/30 07:35:39;;;;;;;58.17;3.00;;;;;;;;;;5031482;28;20457;-69
2023/06/30 07:38:06;;;;;;;57.20;2.80;;;;;;;;;;5031775;28;20544;-69
2023/06/30 07:40:33;;;;;;;57.53;3.30;;;;;;;;;;5031636;28;20453;-68
2023/06/30 07:43:00;;;;;;;56.87;2.90;;;;;;;;;;5030982;28;20462;-68
2023/06/30 07:45:29;;;;;;;61.43;2.80;;;;;;;;;;5030867;28;20458;-69
2023/06/30 07:47:56;;;;;;;57.30;2.90;;;;;;;;;;5031213;28;20556;-69
2023/06/30 07:50:24;;;;;;;57.10;2.80;;;;;;;;;;5031432;28;20453;-69
2023/06/30 07:52:51;;;;;;;58.03;2.50;;;;;;;;;;5031181;28;20957;-69
2023/06/30 07:55:18;;;;;;;57.70;3.07;;;;;;;;;;5031072;28;20821;-69
2023/06/30 07:57:46;;;;;;;57.43;2.90;;;;;;;;;;5031243;28;20985;-69
2023/06/30 08:00:15;;;;;;;56.53;2.43;;;;;;;;;;5031270;28;20453;-69
2023/06/30 08:02:44;;;;;;;56.83;2.60;;;;;;;;;;5031448;28;20449;-68
2023/06/30 08:05:11;;;;;;;56.97;2.73;;;;;;;;;;5031072;28;20448;-69
2023/06/30 08:07:38;;;;;;;57.30;2.63;;;;;;;;;;5030995;28;20469;-69
2023/06/30 08:10:06;;;;;;;56.97;2.87;;;;;;;;;;5030909;28;20453;-69
2023/06/30 08:12:33;;;;;;;57.63;3.57;;;;;;;;;;5031476;28;20449;-69
2023/06/30 08:15:00;;;;;;;57.77;3.23;;;;;;;;;;5031072;28;20450;-69
2023/06/30 08:17:27;;;;;;;57.00;2.60;;;;;;;;;;5030693;28;20476;-69
2023/06/30 08:19:55;;;;;;;57.40;2.90;;;;;;;;;;5031266;28;20441;-68
2023/06/30 08:22:22;;;;;;;56.67;2.60;;;;;;;;;;5031321;28;20450;-68
2023/06/30 08:24:49;;;;;;;57.67;3.00;;;;;;;;;;5030958;28;20457;-69
2023/06/30 08:27:17;;;;;;;56.80;3.53;;;;;;;;;;5030572;28;20496;-69
2023/06/30 08:29:44;;;;;;;56.97;3.10;;;;;;;;;;5031150;28;20481;-69
2023/06/30 08:32:12;;;;;;;57.97;3.47;;;;;;;;;;5031108;28;20445;-69
2023/06/30 08:34:39;;;;;;;59.33;3.27;;;;;;;;;;5030908;28;20510;-69
2023/06/30 08:37:07;;;;;;;56.70;2.73;;;;;;;;;;5030519;28;20473;-69
2023/06/30 08:39:34;;;;;;;58.07;3.83;;;;;;;;;;5030781;28;20452;-69
2023/06/30 08:42:02;;;;;;;57.20;3.03;;;;;;;;;;5031116;28;20441;-69
2023/06/30 08:44:29;;;;;;;57.10;2.73;;;;;;;;;;5031055;28;20528;-69
2023/06/30 08:46:56;;;;;;;56.87;2.63;;;;;;;;;;5030590;28;20472;-69
2023/06/30 08:49:24;;;;;;;57.67;3.07;;;;;;;;;;5030893;28;20485;-68
2023/06/30 08:51:53;;;;;;;65.40;2.80;;;;;;;;;;5030877;28;20445;-68
2023/06/30 08:54:22;;;;;;;57.10;3.03;;;;;;;;;;5030479;28;20457;-68
2023/06/30 08:56:49;;;;;;;58.97;3.53;;;;;;;;;;5030571;28;20469;-67
2023/06/30 08:59:16;;;;;;;57.00;2.47;;;;;;;;;;5030855;28;20468;-67
2023/06/30 09:01:44;;;;;;;58.13;3.30;;;;;;;;;;5030771;28;20445;-67
2023/06/30 09:04:11;;;;;;;58.47;2.67;;;;;;;;;;5030715;28;20457;-67
2023/06/30 09:06:41;;;;;;;57.40;3.03;;;;;;;;;;5030208;28;20465;-67
2023/06/30 09:09:09;;;;;;;57.20;2.83;;;;;;;;;;5030559;28;20504;-67
2023/06/30 09:11:39;;;;;;;59.57;4.00;;;;;;;;;;5030245;28;21023;-68
2023/06/30 09:14:08;;;;;;;57.53;3.63;;;;;;;;;;5025400;28;20449;-68
2023/06/30 09:16:35;;;;;;;59.00;4.00;;;;;;;;;;5030002;28;20995;-68
2023/06/30 09:19:02;;;;;;;59.53;4.83;;;;;;;;;;5022363;28;20438;-68
2023/06/30 09:21:29;;;;;;;57.70;3.30;;;;;;;;;;5030509;28;20445;-68
2023/06/30 09:23:56;;;;;;;58.43;3.40;;;;;;;;;;5030820;28;20452;-68
2023/06/30 09:26:23;;;;;;;57.23;2.67;;;;;;;;;;5030289;28;20461;-68
2023/06/30 09:28:55;;;;;;;58.00;2.80;;;;;;;;;;5032289;28;20479;-68
2023/06/30 09:31:28;;;;;;;57.30;2.67;;;;;;;;;;5034078;28;20453;-68
2023/06/30 09:34:07;;;;;;;57.07;2.80;;;;;;;;;;5033908;28;20466;-68
2023/06/30 09:36:35;;;;;;;58.60;4.00;;;;;;;;;;5033723;28;20469;-68
2023/06/30 09:39:02;;;;;;;57.30;2.90;;;;;;;;;;5034004;28;20441;-68
2023/06/30 09:41:31;;;;;;;57.30;2.50;;;;;;;;;;5034164;28;20450;-68
2023/06/30 09:43:59;;;;;;;57.23;2.83;;;;;;;;;;5033077;28;20515;-68
2023/06/30 09:46:28;;;;;;;57.83;3.03;;;;;;;;;;5033113;28;20973;-68
2023/06/30 09:48:55;;;;;;;57.80;3.07;;;;;;;;;;5033589;28;20538;-68
2023/06/30 09:51:22;;;;;;;57.20;3.30;;;;;;;;;;5033747;28;20527;-68
2023/06/30 09:53:52;;;;;;;57.80;3.83;;;;;;;;;;5033493;28;20946;-68
2023/06/30 09:56:23;;;;;;;58.53;3.10;;;;;;;;;;5032966;28;20473;-67
2023/06/30 09:58:51;;;;;;;56.87;2.47;;;;;;;;;;5033285;28;20446;-68
2023/06/30 10:01:23;;;;;;;57.80;3.70;;;;;;;;;;5033688;28;20480;-68
2023/06/30 10:03:50;;;;;;;57.83;3.90;;;;;;;;;;5033535;28;20445;-68
2023/06/30 10:06:18;;;;;;;57.20;2.93;;;;;;;;;;5033038;28;20461;-68
2023/06/30 10:08:46;;;;;;;60.73;3.13;;;;;;;;;;5032975;28;20515;-68
2023/06/30 10:11:13;;;;;;;56.67;2.30;;;;;;;;;;5033010;28;20479;-68
2023/06/30 10:13:42;;;;;;;58.80;3.53;;;;;;;;;;5033367;28;20441;-68
2023/06/30 10:16:09;;;;;;;58.30;3.60;;;;;;;;;;5032696;28;20476;-68
2023/06/30 10:18:42;;;;;;;57.97;2.93;;;;;;;;;;5033281;28;20445;-68
2023/06/30 10:21:09;;;;;;;57.57;3.40;;;;;;;;;;5030170;28;20456;-68
2023/06/30 10:23:37;;;;;;;57.27;2.50;;;;;;;;;;5032106;28;20453;-68
2023/06/30 10:26:06;;;;;;;57.40;2.77;;;;;;;;;;5031743;28;20484;-67
2023/06/30 10:28:33;;;;;;;57.67;2.53;;;;;;;;;;5032150;28;20490;-67
2023/06/30 10:31:01;;;;;;;56.70;2.77;;;;;;;;;;5032165;28;20444;-67
2023/06/30 10:33:28;;;;;;;58.63;3.23;;;;;;;;;;5032378;28;20450;-68
2023/06/30 10:35:57;;;;;;;59.73;3.93;;;;;;;;;;5032267;28;20480;-68
2023/06/30 10:38:25;;;;;;;56.90;2.30;;;;;;;;;;5032398;28;20449;-68
2023/06/30 10:41:12;;;;;;;58.50;3.70;;;;;;;;;;5032696;28;20449;-68
2023/06/30 10:43:54;;;;;;;56.77;2.97;;;;;;;;;;5032778;28;20445;-67
2023/06/30 10:46:21;;;;;;;57.00;2.63;;;;;;;;;;5031482;28;21005;-68
2023/06/30 10:48:48;;;;;;;57.97;3.10;;;;;;;;;;5032409;28;20818;-68
2023/06/30 10:51:16;;;;;;;56.67;2.40;;;;;;;;;;5032685;28;20453;-68
2023/06/30 10:53:44;;;;;;;56.63;2.63;;;;;;;;;;5031534;28;20968;-68
2023/06/30 10:56:11;;;;;;;59.40;3.70;;;;;;;;;;5032005;28;20496;-68
2023/06/30 10:58:43;;;;;;;60.60;5.23;;;;;;;;;;5032378;28;20445;-68
2023/06/30 11:01:11;;;;;;;57.87;2.80;;;;;;;;;;5032346;28;20940;-68
2023/06/30 11:03:56;;;;;;;58.00;4.20;;;;;;;;;;5032198;28;20472;-68
2023/06/30 11:06:25;;;;;;;57.70;4.13;;;;;;;;;;5031823;28;20840;-68
2023/06/30 11:09:00;;;;;;;58.60;3.23;;;;;;;;;;5032125;28;20868;-68
2023/06/30 11:11:28;;;;;;;59.17;4.47;;;;;;;;;;5032235;28;20494;-68
2023/06/30 11:14:04;;;;;;;56.80;2.90;;;;;;;;;;5031988;28;20864;-68
2023/06/30 11:16:32;;;;;;;59.00;4.83;;;;;;;;;;5031773;28;20503;-68
2023/06/30 11:19:02;;;;;;;57.37;3.40;;;;;;;;;;5032018;28;20532;-68
2023/06/30 11:21:32;;;;;;;59.37;3.77;;;;;;;;;;5031930;28;20445;-68
2023/06/30 11:23:59;;;;;;;61.10;3.43;;;;;;;;;;5032137;28;20445;-68
2023/06/30 11:26:26;;;;;;;57.47;3.40;;;;;;;;;;5031296;28;20469;-68
2023/06/30 11:28:53;;;;;;;58.07;2.97;;;;;;;;;;5031636;28;20973;-68
2023/06/30 11:31:20;;;;;;;57.80;3.83;;;;;;;;;;5031890;28;20446;-68
2023/06/30 11:33:47;;;;;;;58.07;4.90;;;;;;;;;;5031884;28;20546;-68
2023/06/30 11:36:15;;;;;;;57.83;3.60;;;;;;;;;;5031384;28;20469;-67
2023/06/30 11:38:45;;;;;;;59.13;3.80;;;;;;;;;;5031962;28;20471;-68
2023/06/30 11:41:12;;;;;;;58.80;4.10;;;;;;;;;;5031470;28;20964;-68
2023/06/30 11:43:40;;;;;;;61.23;4.57;;;;;;;;;;5031028;28;20829;-68
2023/06/30 11:46:09;;;;;;;56.70;2.77;;;;;;;;;;5031170;28;20996;-68
2023/06/30 11:48:38;;;;;;;57.07;2.90;;;;;;;;;;5031532;28;20833;-68
2023/06/30 11:51:05;;;;;;;61.40;4.90;;;;;;;;;;5030810;28;20552;-68
2023/06/30 11:53:32;;;;;;;58.97;3.40;;;;;;;;;;5031176;28;20933;-68
2023/06/30 11:56:02;;;;;;;57.50;4.33;;;;;;;;;;5031079;28;20476;-68
2023/06/30 11:58:29;;;;;;;58.67;3.20;;;;;;;;;;5031268;28;20449;-68
2023/06/30 12:00:57;;;;;;;57.97;3.07;;;;;;;;;;5031245;28;20442;-68
2023/06/30 12:03:24;;;;;;;58.20;4.57;;;;;;;;;;5031183;28;20450;-68
2023/06/30 12:05:57;;;;;;;57.07;3.10;;;;;;;;;;5030684;28;20574;-68
2023/06/30 12:08:25;;;;;;;58.60;4.30;;;;;;;;;;5031479;28;20479;-68
2023/06/30 12:10:52;;;;;;;58.23;4.57;;;;;;;;;;5031282;28;20489;-68
2023/06/30 12:13:21;;;;;;;59.07;4.10;;;;;;;;;;5031286;28;20527;-69
2023/06/30 12:15:56;;;;;;;59.30;4.20;;;;;;;;;;5030836;28;20449;-68
2023/06/30 12:18:30;;;;;;;58.50;3.23;;;;;;;;;;5030952;28;20455;-68
2023/06/30 12:20:58;;;;;;;60.97;5.77;;;;;;;;;;5031294;28;20452;-69
2023/06/30 12:23:28;;;;;;;58.57;4.80;;;;;;;;;;5031133;28;20449;-69
2023/06/30 12:25:57;;;;;;;59.00;5.37;;;;;;;;;;5030732;28;20472;-69
2023/06/30 12:28:26;;;;;;;58.80;4.07;;;;;;;;;;5030938;28;20545;-68
2023/06/30 12:30:55;;;;;;;59.10;4.43;;;;;;;;;;5030785;28;20933;-68
2023/06/30 12:33:23;;;;;;;58.00;3.60;;;;;;;;;;5031209;28;20817;-68
2023/06/30 12:35:50;;;;;;;58.70;4.13;;;;;;;;;;5030871;28;20929;-68
2023/06/30 12:38:18;;;;;;;57.67;4.00;;;;;;;;;;5031089;28;20445;-68
2023/06/30 12:40:45;;;;;;;58.47;3.60;;;;;;;;;;5031057;28;20473;-68
2023/06/30 12:43:12;;;;;;;60.23;4.40;;;;;;;;;;5030901;28;20840;-68
2023/06/30 12:45:41;;;;;;;57.17;3.27;;;;;;;;;;5030639;28;20449;-68
2023/06/30 12:48:08;;;;;;;58.60;3.23;;;;;;;;;;5031213;28;20446;-68
2023/06/30 12:50:35;;;;;;;57.77;3.43;;;;;;;;;;5031221;28;20485;-69
2023/06/30 12:53:02;;;;;;;58.33;4.00;;;;;;;;;;5030955;28;20453;-68
2023/06/30 12:55:29;;;;;;;60.03;2.87;;;;;;;;;;5030413;28;20453;-69
2023/06/30 12:57:56;;;;;;;58.30;3.80;;;;;;;;;;5030617;28;20487;-68
2023/06/30 13:00:23;;;;;;;57.57;3.30;;;;;;;;;;5031016;28;20465;-68
2023/06/30 13:02:52;;;;;;;57.80;2.87;;;;;;;;;;5032632;28;20456;-68
2023/06/30 13:05:19;;;;;;;58.67;4.37;;;;;;;;;;5034246;28;20453;-68
2023/06/30 13:07:46;;;;;;;57.53;3.40;;;;;;;;;;5034364;28;20465;-68
2023/06/30 13:10:14;;;;;;;61.90;5.23;;;;;;;;;;5034213;28;20556;-68
2023/06/30 13:12:41;;;;;;;57.67;3.60;;;;;;;;;;5034727;28;20503;-68
2023/06/30 13:15:08;;;;;;;59.07;3.10;;;;;;;;;;5034235;28;20534;-68
2023/06/30 13:17:36;;;;;;;61.27;3.97;;;;;;;;;;5034242;28;20848;-68
2023/06/30 13:20:06;;;;;;;59.20;4.50;;;;;;;;;;5034747;28;20449;-68
2023/06/30 13:22:33;;;;;;;58.80;4.00;;;;;;;;;;5034215;28;20445;-68
2023/06/30 13:25:00;;;;;;;60.33;3.50;;;;;;;;;;5033842;28;20459;-69
2023/06/30 13:27:27;;;;;;;57.90;3.10;;;;;;;;;;5033743;28;20464;-68
2023/06/30 13:29:55;;;;;;;58.47;3.97;;;;;;;;;;5034243;28;20845;-68
2023/06/30 13:32:22;;;;;;;57.50;3.27;;;;;;;;;;5034074;28;20452;-69
2023/06/30 13:34:49;;;;;;;59.07;3.10;;;;;;;;;;5033878;28;20456;-68
2023/06/30 13:37:18;;;;;;;58.50;3.53;;;;;;;;;;5033510;28;20473;-70
2023/06/30 13:39:45;;;;;;;59.33;3.90;;;;;;;;;;5034083;28;20457;-68
2023/06/30 13:42:12;;;;;;;57.10;3.10;;;;;;;;;;5033718;28;21006;-69
2023/06/30 13:44:39;;;;;;;58.80;4.40;;;;;;;;;;5032771;28;20957;-69
2023/06/30 13:47:06;;;;;;;57.90;3.60;;;;;;;;;;5033247;28;20844;-68
2023/06/30 13:49:33;;;;;;;58.20;3.60;;;;;;;;;;5033357;28;20938;-69
2023/06/30 13:52:01;;;;;;;61.10;2.93;;;;;;;;;;5033371;28;20982;-69
2023/06/30 13:54:30;;;;;;;59.83;4.80;;;;;;;;;;5033316;28;20445;-69
2023/06/30 13:56:57;;;;;;;58.10;3.37;;;;;;;;;;5032847;28;20985;-68
2023/06/30 13:59:25;;;;;;;59.00;3.50;;;;;;;;;;5033479;28;20456;-69
2023/06/30 14:01:52;;;;;;;57.87;4.00;;;;;;;;;;5033434;28;20445;-69
2023/06/30 14:04:19;;;;;;;61.90;5.73;;;;;;;;;;5033392;28;20449;-68
2023/06/30 14:06:46;;;;;;;57.30;3.20;;;;;;;;;;5032921;28;20469;-69
2023/06/30 14:09:13;;;;;;;57.57;3.20;;;;;;;;;;5033312;28;20456;-69
2023/06/30 14:11:41;;;;;;;57.20;3.10;;;;;;;;;;5033264;28;20484;-69
2023/06/30 14:14:08;;;;;;;58.47;3.60;;;;;;;;;;5032495;28;20450;-69
2023/06/30 14:16:36;;;;;;;58.33;3.43;;;;;;;;;;5032806;28;20473;-70
2023/06/30 14:19:03;;;;;;;57.40;3.20;;;;;;;;;;5033128;28;20448;-69
2023/06/30 14:21:30;;;;;;;58.60;3.80;;;;;;;;;;5033068;28;20445;-69
2023/06/30 14:23:57;;;;;;;58.60;4.30;;;;;;;;;;5033103;28;20449;-68
2023/06/30 14:26:24;;;;;;;58.63;3.93;;;;;;;;;;5032633;28;20469;-68
2023/06/30 14:28:53;;;;;;;57.53;3.40;;;;;;;;;;5033022;28;20476;-66
2023/06/30 14:31:20;;;;;;;57.90;3.50;;;;;;;;;;5032797;28;20485;-66
2023/06/30 14:33:47;;;;;;;61.27;5.30;;;;;;;;;;5032692;28;20969;-66